createdAt,value
2018-01-02T00:01:14.732Z,0.50
2018-01-02T00:03:42.312Z,0.57
2018-01-02T00:06:09.876Z,0.50
2018-01-02T00:08:37.405Z,0.37
2018-01-02T00:11:04.957Z,0.37
2018-01-02T00:13:32.535Z,0.30
2018-01-02T00:16:00.096Z,0.43
2018-01-02T00:18:27.682Z,0.30
2018-01-02T00:20:55.234Z,0.40
2018-01-02T00:23:22.810Z,0.30
2018-01-02T00:25:50.382Z,0.40
2018-01-02T00:28:18.681Z,0.27
2018-01-02T00:30:46.247Z,0.53
2018-01-02T00:33:23.508Z,0.27
2018-01-02T00:35:51.831Z,0.43
2018-01-02T00:38:19.364Z,0.30
2018-01-02T00:40:46.873Z,0.20
2018-01-02T00:43:14.405Z,0.30
2018-01-02T00:45:41.959Z,0.30
2018-01-02T00:48:09.544Z,0.47
2018-01-02T00:50:37.057Z,0.10
2018-01-02T00:53:04.599Z,0.23
2018-01-02T00:55:32.133Z,0.30
2018-01-02T00:57:59.649Z,0.17
2018-01-02T01:00:27.173Z,0.23
2018-01-02T01:02:54.680Z,0.17
2018-01-02T01:05:22.211Z,0.20
2018-01-02T01:07:49.728Z,0.10
2018-01-02T01:10:17.281Z,0.17
2018-01-02T01:12:45.575Z,0.20
2018-01-02T01:15:13.873Z,0.20
2018-01-02T01:17:41.389Z,0.20
2018-01-02T01:20:08.920Z,0.13
2018-01-02T01:22:36.433Z,0.03
2018-01-02T01:25:03.969Z,0.23
2018-01-02T01:27:32.257Z,0.13
2018-01-02T01:30:00.553Z,0.00
2018-01-02T01:32:28.064Z,0.30
2018-01-02T01:34:55.614Z,0.20
2018-01-02T01:37:23.124Z,0.20
2018-01-02T01:39:50.661Z,0.10
2018-01-02T01:42:18.940Z,0.10
2018-01-02T01:44:47.238Z,0.10
2018-01-02T01:47:14.744Z,0.10
2018-01-02T01:49:42.277Z,0.10
2018-01-02T01:52:09.793Z,0.20
2018-01-02T01:54:38.092Z,0.10
2018-01-02T01:57:05.617Z,0.10
2018-01-02T01:59:33.917Z,0.17
2018-01-02T02:02:01.441Z,0.20
2018-01-02T02:04:29.740Z,0.30
2018-01-02T02:06:57.254Z,0.20
2018-01-02T02:09:24.819Z,0.40
2018-01-02T02:11:52.324Z,0.30
2018-01-02T02:14:19.852Z,0.20
2018-01-02T02:16:47.373Z,0.40
2018-01-02T02:19:14.908Z,0.17
2018-01-02T02:21:42.424Z,0.20
2018-01-02T02:24:09.962Z,0.20
2018-01-02T02:26:37.477Z,0.40
2018-01-02T02:29:05.005Z,0.27
2018-01-02T02:31:33.281Z,0.50
2018-01-02T02:34:01.583Z,0.40
2018-01-02T02:36:29.114Z,0.10
2018-01-02T02:38:57.422Z,0.30
2018-01-02T02:41:24.940Z,0.30
2018-01-02T02:43:52.473Z,0.67
2018-01-02T02:46:19.997Z,0.60
2018-01-02T02:48:47.532Z,0.50
2018-01-02T02:51:15.814Z,0.40
2018-01-02T02:53:43.341Z,0.27
2018-01-02T02:56:10.872Z,0.47
2018-01-02T02:58:38.384Z,0.50
2018-01-02T03:01:06.679Z,0.20
2018-01-02T03:03:34.188Z,0.30
2018-01-02T03:06:01.726Z,0.70
2018-01-02T03:08:29.245Z,0.43
2018-01-02T03:10:56.781Z,0.30
2018-01-02T03:13:24.293Z,0.37
2018-01-02T03:15:51.833Z,0.60
2018-01-02T03:18:19.354Z,0.30
2018-01-02T03:20:47.658Z,0.27
2018-01-02T03:23:15.197Z,0.57
2018-01-02T03:25:43.491Z,0.37
2018-01-02T03:28:11.009Z,0.33
2018-01-02T03:30:38.553Z,0.30
2018-01-02T03:33:06.078Z,0.70
2018-01-02T03:35:33.613Z,0.30
2018-01-02T03:38:01.171Z,0.20
2018-01-02T03:40:28.759Z,0.40
2018-01-02T03:42:56.272Z,0.30
2018-01-02T03:45:24.594Z,0.10
2018-01-02T03:47:52.115Z,0.20
2018-01-02T03:50:20.413Z,0.50
2018-01-02T03:52:47.921Z,0.27
2018-01-02T03:55:15.460Z,0.10
2018-01-02T03:57:42.977Z,0.20
2018-01-02T04:00:10.513Z,0.30
2018-01-02T04:02:38.049Z,0.20
2018-01-02T04:05:05.581Z,0.10
2018-01-02T04:07:33.104Z,0.20
2018-01-02T04:10:00.648Z,0.30
2018-01-02T04:12:28.938Z,0.30
2018-01-02T04:14:56.468Z,0.23
2018-01-02T04:17:23.997Z,0.20
2018-01-02T04:19:51.537Z,0.20
2018-01-02T04:22:19.045Z,0.20
2018-01-02T04:24:47.359Z,0.50
2018-01-02T04:27:14.882Z,0.40
2018-01-02T04:29:43.184Z,0.20
2018-01-02T04:32:10.710Z,0.80
2018-01-02T04:34:38.245Z,0.47
2018-01-02T04:37:05.757Z,0.53
2018-01-02T04:39:33.290Z,0.37
2018-01-02T04:42:00.840Z,0.57
2018-01-02T04:44:28.365Z,0.57
2018-01-02T04:46:55.877Z,0.50
2018-01-02T04:49:23.393Z,0.30
2018-01-02T04:51:50.924Z,0.30
2018-01-02T04:54:18.441Z,0.40
2018-01-02T04:56:46.753Z,0.20
2018-01-02T04:59:14.265Z,0.50
2018-01-02T05:01:41.802Z,0.20
2018-01-02T05:04:09.320Z,0.40
2018-01-02T05:06:36.854Z,0.50
2018-01-02T05:09:04.409Z,0.27
2018-01-02T05:11:32.717Z,0.60
2018-01-02T05:14:00.245Z,0.50
2018-01-02T05:16:28.556Z,0.50
2018-01-02T05:18:56.083Z,0.40
2018-01-02T05:21:24.392Z,0.23
2018-01-02T05:23:51.923Z,0.87
2018-01-02T05:26:20.215Z,0.60
2018-01-02T05:28:47.735Z,0.40
2018-01-02T05:31:15.265Z,0.30
2018-01-02T05:33:42.797Z,0.50
2018-01-02T05:36:10.382Z,0.63
2018-01-02T05:38:37.896Z,0.30
2018-01-02T05:41:05.431Z,0.30
2018-01-02T05:43:32.944Z,0.70
2018-01-02T05:46:00.473Z,0.60
2018-01-02T05:48:27.997Z,0.60
2018-01-02T05:50:55.537Z,0.57
2018-01-02T05:53:23.057Z,0.70
2018-01-02T05:55:50.589Z,0.43
2018-01-02T05:58:18.881Z,0.43
2018-01-02T06:00:46.417Z,0.30
2018-01-02T06:03:14.707Z,0.60
2018-01-02T06:05:43.004Z,0.90
2018-01-02T06:08:10.525Z,0.47
2018-01-02T06:10:38.054Z,0.60
2018-01-02T06:13:05.569Z,0.73
2018-01-02T06:15:33.750Z,0.57
2018-01-02T06:18:01.264Z,0.73
2018-01-02T06:20:28.822Z,0.60
2018-01-02T06:22:56.342Z,0.77
2018-01-02T06:25:23.892Z,0.53
2018-01-02T06:27:51.404Z,0.63
2018-01-02T06:30:19.720Z,0.80
2018-01-02T06:32:47.253Z,0.80
2018-01-02T06:35:15.558Z,0.40
2018-01-02T06:37:43.834Z,0.67
2018-01-02T06:40:11.364Z,0.43
2018-01-02T06:42:38.892Z,0.70
2018-01-02T06:45:06.401Z,0.50
2018-01-02T06:47:33.947Z,0.20
2018-01-02T06:50:01.465Z,0.90
2018-01-02T06:52:29.002Z,0.60
2018-01-02T06:54:56.517Z,0.70
2018-01-02T06:57:24.041Z,0.63
2018-01-02T06:59:51.566Z,1.17
2018-01-02T07:02:19.101Z,0.50
2018-01-02T07:04:46.629Z,0.70
2018-01-02T07:07:14.928Z,0.90
2018-01-02T07:09:42.468Z,1.03
2018-01-02T07:12:10.786Z,0.80
2018-01-02T07:14:38.296Z,1.00
2018-01-02T07:17:06.830Z,0.73
2018-01-02T07:19:34.341Z,0.70
2018-01-02T07:22:01.913Z,0.60
2018-01-02T07:24:29.424Z,0.77
2018-01-02T07:26:56.961Z,0.70
2018-01-02T07:29:24.484Z,1.00
2018-01-02T07:31:52.018Z,1.00
2018-01-02T07:34:19.535Z,0.90
2018-01-02T07:36:47.073Z,1.00
2018-01-02T07:39:14.593Z,0.93
2018-01-02T07:41:42.145Z,1.00
2018-01-02T07:44:09.656Z,0.90
2018-01-02T07:46:37.166Z,1.10
2018-01-02T07:49:04.777Z,1.10
2018-01-02T07:51:32.304Z,0.87
2018-01-02T07:54:00.615Z,1.20
2018-01-02T07:56:28.145Z,0.80
2018-01-02T07:58:55.736Z,1.23
2018-01-02T08:01:24.020Z,0.90
2018-01-02T08:03:51.576Z,1.00
2018-01-02T08:06:19.091Z,0.70
2018-01-02T08:08:46.632Z,0.70
2018-01-02T08:11:14.149Z,0.80
2018-01-02T08:13:41.679Z,0.50
2018-01-02T08:16:09.202Z,0.73
2018-01-02T08:18:36.743Z,0.37
2018-01-02T08:21:04.258Z,0.70
2018-01-02T08:23:31.802Z,0.40
2018-01-02T08:25:59.315Z,1.00
2018-01-02T08:28:26.848Z,9.40
2018-01-02T08:30:54.361Z,1.20
2018-01-02T08:33:22.666Z,1.07
2018-01-02T08:35:50.434Z,1.50
2018-01-02T08:38:17.969Z,1.30
2018-01-02T08:40:46.257Z,1.40
2018-01-02T08:43:13.792Z,1.17
2018-01-02T08:45:41.312Z,1.33
2018-01-02T08:48:08.862Z,1.00
2018-01-02T08:50:36.377Z,1.30
2018-01-02T08:53:04.681Z,1.83
2018-01-02T08:55:32.206Z,1.27
2018-01-02T08:57:59.771Z,1.13
2018-01-02T09:00:27.294Z,1.40
2018-01-02T09:02:54.844Z,1.10
2018-01-02T09:05:22.367Z,0.80
2018-01-02T09:07:49.889Z,0.77
2018-01-02T09:10:18.192Z,0.90
2018-01-02T09:12:47.521Z,1.27
2018-01-02T09:15:15.050Z,0.70
2018-01-02T09:17:42.578Z,1.13
2018-01-02T09:20:10.115Z,0.80
2018-01-02T09:22:37.633Z,0.97
2018-01-02T09:25:05.164Z,0.83
2018-01-02T09:27:33.443Z,0.83
2018-01-02T09:30:01.748Z,1.17
2018-01-02T09:32:29.264Z,1.23
2018-01-02T09:34:57.569Z,0.87
2018-01-02T09:37:25.082Z,0.83
2018-01-02T09:39:52.618Z,1.20
2018-01-02T09:42:20.134Z,1.20
2018-01-02T09:44:47.670Z,1.30
2018-01-02T09:47:15.945Z,1.77
2018-01-02T09:49:44.244Z,1.00
2018-01-02T09:52:11.797Z,1.30
2018-01-02T09:54:39.337Z,1.20
2018-01-02T09:57:06.849Z,1.63
2018-01-02T09:59:34.360Z,1.23
2018-01-02T10:02:01.890Z,1.60
2018-01-02T10:04:29.410Z,2.00
2018-01-02T10:06:56.951Z,1.30
2018-01-02T10:09:24.464Z,1.00
2018-01-02T10:11:51.996Z,1.43
2018-01-02T10:14:19.552Z,1.60
2018-01-02T10:16:47.081Z,1.70
2018-01-02T10:19:14.733Z,1.60
2018-01-02T10:21:43.031Z,1.80
2018-01-02T10:24:10.544Z,1.53
2018-01-02T10:26:38.134Z,1.60
2018-01-02T10:29:05.653Z,1.90
2018-01-02T10:31:33.185Z,1.73
2018-01-02T10:34:00.702Z,1.67
2018-01-02T10:39:23.692Z,1.87
2018-01-02T10:41:51.238Z,1.63
2018-01-02T10:44:18.753Z,1.30
2018-01-02T10:46:46.294Z,1.17
2018-01-02T10:49:13.813Z,1.20
2018-01-02T10:51:41.351Z,1.03
2018-01-02T10:54:09.629Z,1.23
2018-01-02T10:56:37.936Z,1.30
2018-01-02T10:59:05.457Z,1.03
2018-01-02T11:01:33.057Z,1.00
2018-01-02T11:04:00.563Z,1.40
2018-01-02T11:06:28.095Z,1.40
2018-01-02T11:08:55.678Z,0.97
2018-01-02T11:11:23.225Z,1.37
2018-01-02T11:13:53.380Z,3.00
2018-01-02T11:16:21.684Z,1.40
2018-01-02T11:18:49.207Z,1.60
2018-01-02T11:21:17.521Z,1.57
2018-01-02T11:23:45.037Z,1.50
2018-01-02T11:26:13.338Z,0.97
2018-01-02T11:28:40.884Z,1.43
2018-01-02T11:31:08.426Z,1.57
2018-01-02T11:33:36.729Z,1.53
2018-01-02T11:36:04.236Z,1.47
2018-01-02T11:38:31.776Z,1.60
2018-01-02T11:40:59.293Z,2.50
2018-01-02T11:43:27.619Z,1.90
2018-01-02T11:45:55.952Z,1.90
2018-01-02T11:48:23.489Z,1.80
2018-01-02T11:50:51.772Z,0.90
2018-01-02T11:53:20.081Z,1.20
2018-01-02T11:55:47.602Z,1.50
2018-01-02T11:58:15.904Z,1.30
2018-01-02T12:00:43.421Z,1.30
2018-01-02T12:03:11.008Z,1.20
2018-01-02T12:05:38.501Z,1.40
2018-01-02T12:08:06.036Z,1.20
2018-01-02T12:10:33.582Z,1.37
2018-01-02T12:13:01.873Z,1.03
2018-01-02T12:15:29.395Z,1.30
2018-01-02T12:17:57.701Z,1.40
2018-01-02T12:20:25.237Z,1.73
2018-01-02T12:22:52.778Z,1.70
2018-01-02T12:25:21.140Z,1.83
2018-01-02T12:27:48.669Z,1.23
2018-01-02T12:30:16.202Z,1.20
2018-01-02T12:32:44.509Z,1.43
2018-01-02T12:35:12.080Z,2.00
2018-01-02T12:37:39.620Z,1.40
2018-01-02T12:40:07.139Z,1.33
2018-01-02T12:42:35.455Z,1.43
2018-01-02T12:45:02.976Z,1.83
2018-01-02T12:47:31.469Z,1.90
2018-01-02T12:49:58.989Z,1.60
2018-01-02T12:52:26.505Z,2.17
2018-01-02T12:54:54.046Z,1.60
2018-01-02T12:57:21.564Z,1.87
2018-01-02T12:59:49.100Z,1.53
2018-01-02T13:02:16.612Z,1.63
2018-01-02T13:04:44.911Z,1.60
2018-01-02T13:07:12.428Z,1.40
2018-01-02T13:09:40.729Z,1.50
2018-01-02T13:12:08.246Z,1.80
2018-01-02T13:14:35.790Z,1.90
2018-01-02T13:17:03.321Z,1.40
2018-01-02T13:19:30.893Z,2.23
2018-01-02T13:21:58.504Z,1.53
2018-01-02T13:24:26.061Z,1.77
2018-01-02T13:26:54.345Z,1.43
2018-01-02T13:29:21.884Z,1.47
2018-01-02T13:31:49.436Z,1.97
2018-01-02T13:34:16.969Z,2.00
2018-01-02T13:36:44.489Z,1.60
2018-01-02T13:39:12.013Z,2.03
2018-01-02T13:41:39.551Z,1.47
2018-01-02T13:44:07.087Z,1.50
2018-01-02T13:46:34.605Z,1.60
2018-01-02T13:49:02.253Z,1.67
2018-01-02T13:51:29.777Z,1.50
2018-01-02T13:53:57.320Z,1.90
2018-01-02T13:56:24.837Z,1.47
2018-01-02T13:58:52.377Z,1.70
2018-01-02T14:01:19.892Z,1.70
2018-01-02T14:03:47.461Z,1.60
2018-01-02T14:06:14.984Z,1.60
2018-01-02T14:08:42.524Z,1.83
2018-01-02T14:11:10.044Z,1.97
2018-01-02T14:13:37.583Z,2.43
2018-01-02T14:16:05.101Z,1.73
2018-01-02T14:18:33.400Z,2.13
2018-01-02T14:21:02.017Z,1.77
2018-01-02T14:23:29.549Z,1.60
2018-01-02T14:25:57.057Z,1.53
2018-01-02T14:28:24.576Z,1.83
2018-01-02T14:30:52.114Z,1.90
2018-01-02T14:33:19.635Z,1.33
2018-01-02T14:35:47.173Z,1.57
2018-01-02T14:38:14.691Z,2.17
2018-01-02T14:40:42.225Z,1.67
2018-01-02T14:43:10.509Z,1.80
2018-01-02T14:45:38.811Z,2.73
2018-01-02T14:48:06.324Z,2.30
2018-01-02T14:50:33.853Z,2.00
2018-01-02T14:53:01.376Z,2.23
2018-01-02T14:55:28.921Z,2.20
2018-01-02T14:57:57.225Z,2.20
2018-01-02T15:00:24.756Z,1.70
2018-01-02T15:02:52.279Z,1.60
2018-01-02T15:05:19.855Z,1.60
2018-01-02T15:07:47.369Z,2.77
2018-01-02T15:10:14.900Z,2.20
2018-01-02T15:12:42.417Z,1.80
2018-01-02T15:15:09.959Z,1.90
2018-01-02T15:17:37.477Z,1.47
2018-01-02T15:20:05.026Z,1.70
2018-01-02T15:22:32.553Z,1.90
2018-01-02T15:25:00.082Z,2.20
2018-01-02T15:27:27.655Z,2.03
2018-01-02T15:29:55.244Z,2.20
2018-01-02T15:32:22.812Z,2.20
2018-01-02T15:34:50.395Z,2.57
2018-01-02T15:37:17.914Z,1.83
2018-01-02T15:39:46.269Z,2.13
2018-01-02T15:42:13.794Z,2.67
2018-01-02T15:44:41.387Z,1.80
2018-01-02T15:47:08.908Z,1.80
2018-01-02T15:49:36.449Z,2.03
2018-01-02T15:52:03.961Z,2.00
2018-01-02T15:54:31.493Z,2.10
2018-01-02T15:56:59.009Z,2.00
2018-01-02T15:59:27.305Z,1.50
2018-01-02T16:01:54.817Z,1.90
2018-01-02T16:04:22.363Z,1.60
2018-01-02T16:06:49.924Z,1.63
2018-01-02T16:09:18.232Z,1.50
2018-01-02T16:11:46.576Z,1.57
2018-01-02T16:14:14.088Z,1.03
2018-01-02T16:16:41.909Z,1.40
2018-01-02T16:19:09.422Z,1.87
2018-01-02T16:21:37.716Z,1.50
2018-01-02T16:24:05.300Z,1.83
2018-01-02T16:26:32.890Z,1.40
2018-01-02T16:29:00.460Z,1.60
2018-01-02T16:31:28.029Z,1.83
2018-01-02T16:33:55.544Z,1.60
2018-01-02T16:36:23.123Z,2.00
2018-01-02T16:38:51.451Z,1.80
2018-01-02T16:41:19.061Z,1.90
2018-01-02T16:43:46.576Z,1.50
2018-01-02T16:46:14.696Z,1.40
2018-01-02T16:48:42.243Z,1.40
2018-01-02T16:51:10.557Z,1.10
2018-01-02T16:53:38.072Z,1.47
2018-01-02T16:56:06.432Z,2.37
2018-01-02T16:58:33.948Z,1.50
2018-01-02T17:01:01.524Z,2.20
2018-01-02T17:03:29.079Z,2.40
2018-01-02T17:05:56.659Z,1.50
2018-01-02T17:08:24.219Z,1.40
2018-01-02T17:10:51.753Z,1.40
2018-01-02T17:13:19.388Z,1.13
2018-01-02T17:15:46.968Z,1.30
2018-01-02T17:18:14.521Z,1.30
2018-01-02T17:20:42.052Z,1.60
2018-01-02T17:23:09.582Z,1.60
2018-01-02T17:25:37.125Z,1.50
2018-01-02T17:28:04.686Z,1.87
2018-01-02T17:30:32.262Z,1.93
2018-01-02T17:33:00.583Z,1.67
2018-01-02T17:35:28.159Z,1.70
2018-01-02T17:37:55.736Z,1.53
2018-01-02T17:40:23.273Z,2.13
2018-01-02T17:42:50.843Z,1.70
2018-01-02T17:45:18.431Z,1.33
2018-01-02T17:47:46.001Z,1.37
2018-01-02T17:50:14.374Z,1.23
2018-01-02T17:52:41.998Z,1.40
2018-01-02T17:55:09.553Z,1.20
2018-01-02T17:57:37.085Z,1.30
2018-01-02T18:00:04.654Z,1.43
2018-01-02T18:02:32.236Z,1.47
2018-01-02T18:04:59.801Z,2.17
2018-01-02T18:07:27.391Z,1.43
2018-01-02T18:09:55.724Z,1.20
2018-01-02T18:12:23.266Z,1.13
2018-01-02T18:14:50.833Z,1.13
2018-01-02T18:17:18.416Z,1.10
2018-01-02T18:19:45.976Z,1.57
2018-01-02T18:22:13.552Z,1.30
2018-01-02T18:24:41.121Z,1.10
2018-01-02T18:27:09.466Z,2.07
2018-01-02T18:29:36.981Z,1.47
2018-01-02T18:32:04.580Z,1.70
2018-01-02T18:34:32.147Z,1.70
2018-01-02T18:36:59.657Z,1.20
2018-01-02T18:39:28.374Z,1.57
2018-01-02T18:41:56.753Z,1.47
2018-01-02T18:44:24.327Z,1.57
2018-01-02T18:46:51.889Z,1.63
2018-01-02T18:49:19.472Z,1.63
2018-01-02T18:51:47.812Z,1.43
2018-01-02T18:54:15.396Z,1.20
2018-01-02T18:56:42.955Z,0.97
2018-01-02T18:59:10.533Z,1.40
2018-01-02T19:01:38.809Z,1.50
2018-01-02T19:04:06.396Z,1.63
2018-01-02T19:06:33.957Z,1.40
2018-01-02T19:09:01.544Z,1.67
2018-01-02T19:11:29.106Z,1.63
2018-01-02T19:13:56.705Z,1.20
2018-01-02T19:16:25.044Z,2.10
2018-01-02T19:18:52.607Z,2.50
2018-01-02T19:21:20.197Z,1.80
2018-01-02T19:23:48.527Z,1.70
2018-01-02T19:26:16.114Z,1.90
2018-01-02T19:28:43.680Z,2.00
2018-01-02T19:31:11.267Z,2.00
2018-01-02T19:33:38.833Z,1.67
2018-01-02T19:36:06.423Z,1.63
2018-01-02T19:38:34.004Z,1.70
2018-01-02T19:41:01.597Z,1.87
2018-01-02T19:43:29.926Z,2.23
2018-01-02T19:45:57.516Z,2.13
2018-01-02T19:48:25.872Z,2.40
2018-01-02T19:50:53.460Z,2.20
2018-01-02T19:53:21.791Z,3.33
2018-01-02T19:55:49.391Z,1.80
2018-01-02T19:58:17.716Z,1.93
2018-01-02T20:00:45.300Z,2.13
2018-01-02T20:03:12.875Z,2.43
2018-01-02T20:05:40.466Z,2.37
2018-01-02T20:08:08.041Z,2.10
2018-01-02T20:10:35.617Z,2.47
2018-01-02T20:13:03.182Z,2.67
2018-01-02T20:15:30.768Z,1.83
2018-01-02T20:17:59.137Z,1.90
2018-01-02T20:20:26.724Z,2.33
2018-01-02T20:22:55.055Z,2.47
2018-01-02T20:25:22.640Z,2.37
2018-01-02T20:27:50.210Z,2.23
2018-01-02T20:30:18.576Z,2.47
2018-01-02T20:32:46.136Z,2.67
2018-01-02T20:35:13.727Z,3.37
2018-01-02T20:37:41.296Z,2.20
2018-01-02T20:40:08.884Z,2.83
2018-01-02T20:42:36.456Z,3.00
2018-01-02T20:45:04.040Z,2.70
2018-01-02T20:47:31.653Z,3.27
2018-01-02T20:49:59.284Z,2.40
2018-01-02T20:52:26.924Z,2.67
2018-01-02T20:54:55.278Z,3.23
2018-01-02T20:57:22.864Z,3.60
2018-01-02T20:59:51.232Z,3.80
2018-01-02T21:02:18.794Z,2.60
2018-01-02T21:04:46.380Z,3.47
2018-01-02T21:07:13.997Z,2.60
2018-01-02T21:09:41.566Z,3.37
2018-01-02T21:12:09.152Z,2.77
2018-01-02T21:14:37.486Z,2.90
2018-01-02T21:17:05.088Z,2.90
2018-01-02T21:19:33.419Z,3.53
2018-01-02T21:22:01.033Z,3.20
2018-01-02T21:24:28.600Z,3.03
2018-01-02T21:26:56.208Z,2.80
2018-01-02T21:29:23.778Z,2.97
2018-01-02T21:31:51.368Z,3.37
2018-01-02T21:34:18.949Z,2.90
2018-01-02T21:36:46.539Z,3.10
2018-01-02T21:39:14.101Z,2.93
2018-01-02T21:41:41.764Z,3.30
2018-01-02T21:44:09.332Z,3.33
2018-01-02T21:46:36.924Z,2.30
2018-01-02T21:49:05.308Z,3.17
2018-01-02T21:51:32.892Z,2.67
2018-01-02T21:54:00.467Z,3.00
2018-01-02T21:56:28.096Z,4.57
2018-01-02T21:58:55.725Z,2.90
2018-01-02T22:01:23.320Z,3.13
2018-01-02T22:03:50.888Z,3.27
2018-01-02T22:06:18.468Z,3.10
2018-01-02T22:08:46.228Z,3.20
2018-01-02T22:11:13.820Z,2.67
2018-01-02T22:13:42.175Z,2.80
2018-01-02T22:16:09.777Z,3.03
2018-01-02T22:18:38.118Z,3.60
2018-01-02T22:21:05.705Z,3.10
2018-01-02T22:23:33.277Z,3.07
2018-01-02T22:26:00.863Z,2.67
2018-01-02T22:28:28.428Z,3.10
2018-01-02T22:30:56.771Z,3.17
2018-01-02T22:33:24.349Z,2.97
2018-01-02T22:35:51.936Z,2.40
2018-01-02T22:38:19.503Z,2.30
2018-01-02T22:40:47.172Z,3.30
2018-01-02T22:43:14.753Z,2.63
2018-01-02T22:45:43.116Z,2.13
2018-01-02T22:48:10.679Z,2.00
2018-01-02T22:50:38.250Z,2.27
2018-01-02T22:53:05.860Z,2.37
2018-01-02T22:55:33.420Z,2.17
2018-01-02T22:58:01.012Z,2.67
2018-01-02T23:00:28.577Z,2.30
2018-01-02T23:02:57.036Z,2.30
2018-01-02T23:05:24.666Z,2.97
2018-01-02T23:07:52.272Z,2.27
2018-01-02T23:10:20.628Z,4.03
2018-01-02T23:12:48.210Z,2.77
2018-01-02T23:15:15.840Z,3.70
2018-01-02T23:17:44.060Z,2.63
2018-01-02T23:20:12.400Z,3.03
2018-01-02T23:22:39.980Z,2.60
2018-01-02T23:25:07.556Z,2.83
2018-01-02T23:27:35.907Z,2.63
2018-01-02T23:30:03.516Z,2.37
2018-01-02T23:32:31.100Z,2.23
2018-01-02T23:34:58.699Z,2.50
2018-01-02T23:37:27.042Z,2.57
2018-01-02T23:39:54.612Z,2.00
2018-01-02T23:42:22.179Z,2.90
2018-01-02T23:44:49.730Z,2.00
2018-01-02T23:47:17.305Z,1.70
2018-01-02T23:49:44.876Z,2.07
2018-01-02T23:52:13.228Z,2.57
2018-01-02T23:54:40.795Z,2.07
2018-01-02T23:57:08.371Z,2.17
2018-01-02T23:59:36.687Z,2.23
